createdAt,value
2022-12-27T00:02:10.022Z,7
2022-12-27T00:04:40.694Z,7
2022-12-27T00:07:11.545Z,8
2022-12-27T00:09:42.380Z,8
2022-12-27T00:12:13.256Z,8
2022-12-27T00:14:44.040Z,8
2022-12-27T00:17:14.926Z,6
2022-12-27T00:19:45.669Z,7
2022-12-27T00:22:15.884Z,9
2022-12-27T00:24:46.316Z,8
2022-12-27T00:27:17.154Z,8
2022-12-27T00:29:47.512Z,11
2022-12-27T00:32:17.721Z,13
2022-12-27T00:34:48.041Z,7
2022-12-27T00:37:18.889Z,11
2022-12-27T00:39:49.716Z,9
2022-12-27T00:42:20.536Z,9
2022-12-27T00:44:51.353Z,9
2022-12-27T00:47:22.198Z,10
2022-12-27T00:49:52.676Z,12
2022-12-27T00:52:23.533Z,10
2022-12-27T00:54:54.344Z,11
2022-12-27T00:57:25.244Z,9
2022-12-27T00:59:56.004Z,9
2022-12-27T01:02:26.627Z,11
2022-12-27T01:04:57.396Z,11
2022-12-27T01:07:28.243Z,11
2022-12-27T01:09:59.067Z,10
2022-12-27T01:12:29.980Z,10
2022-12-27T01:14:59.927Z,11
2022-12-27T01:17:30.782Z,11
2022-12-27T01:20:01.618Z,12
2022-12-27T01:22:32.462Z,12
2022-12-27T01:25:03.277Z,11
2022-12-27T01:27:33.775Z,15
2022-12-27T01:30:04.621Z,11
2022-12-27T01:32:35.185Z,12
2022-12-27T01:35:06.011Z,12
2022-12-27T01:37:36.735Z,11
2022-12-27T01:40:07.406Z,13
2022-12-27T01:42:37.913Z,13
2022-12-27T01:45:08.734Z,11
2022-12-27T01:47:39.022Z,12
2022-12-27T01:50:09.839Z,13
2022-12-27T01:52:40.690Z,14
2022-12-27T01:55:11.521Z,14
2022-12-27T01:57:42.016Z,12
2022-12-27T02:00:12.837Z,11
2022-12-27T02:02:43.784Z,12
2022-12-27T02:05:14.500Z,13
2022-12-27T02:07:44.517Z,13
2022-12-27T02:10:15.064Z,18
2022-12-27T02:12:46.035Z,11
2022-12-27T02:15:16.751Z,14
2022-12-27T02:17:47.689Z,13
2022-12-27T02:20:18.422Z,11
2022-12-27T02:22:49.291Z,12
2022-12-27T02:25:20.082Z,11
2022-12-27T02:27:50.929Z,13
2022-12-27T02:30:21.770Z,15
2022-12-27T02:32:52.601Z,17
2022-12-27T02:35:23.068Z,20
2022-12-27T02:37:53.632Z,13
2022-12-27T02:40:24.434Z,17
2022-12-27T02:42:55.262Z,12
2022-12-27T02:45:26.071Z,14
2022-12-27T02:47:57.006Z,13
2022-12-27T02:50:27.736Z,13
2022-12-27T02:52:58.572Z,17
2022-12-27T02:55:29.359Z,14
2022-12-27T02:58:00.206Z,16
2022-12-27T03:00:30.729Z,13
2022-12-27T03:03:01.668Z,17
2022-12-27T03:05:32.026Z,15
2022-12-27T03:08:02.984Z,13
2022-12-27T03:10:33.705Z,14
2022-12-27T03:13:04.383Z,18
2022-12-27T03:15:35.094Z,12
2022-12-27T03:18:05.915Z,14
2022-12-27T03:20:35.929Z,18
2022-12-27T03:23:06.070Z,17
2022-12-27T03:25:36.582Z,17
2022-12-27T03:28:07.105Z,14
2022-12-27T03:30:37.649Z,14
2022-12-27T03:33:08.066Z,21
2022-12-27T03:35:38.065Z,14
2022-12-27T03:38:08.897Z,13
2022-12-27T03:40:39.148Z,17
2022-12-27T03:43:09.651Z,14
2022-12-27T03:45:40.468Z,15
2022-12-27T03:48:11.024Z,16
2022-12-27T03:50:41.854Z,15
2022-12-27T03:53:12.688Z,16
2022-12-27T03:55:43.496Z,16
2022-12-27T03:58:14.393Z,15
2022-12-27T04:00:45.172Z,16
2022-12-27T04:03:16.108Z,14
2022-12-27T04:05:46.910Z,14
2022-12-27T04:08:17.017Z,16
2022-12-27T04:10:47.820Z,14
2022-12-27T04:13:18.660Z,17
2022-12-27T04:15:48.939Z,13
2022-12-27T04:18:19.383Z,13
2022-12-27T04:20:49.627Z,17
2022-12-27T04:23:20.479Z,13
2022-12-27T04:25:51.280Z,14
2022-12-27T04:28:22.181Z,14
2022-12-27T04:30:52.945Z,13
2022-12-27T04:33:23.876Z,12
2022-12-27T04:35:54.603Z,11
2022-12-27T04:38:25.432Z,17
2022-12-27T04:40:56.187Z,13
2022-12-27T04:43:27.005Z,10
2022-12-27T04:45:57.458Z,13
2022-12-27T04:48:28.284Z,14
2022-12-27T04:50:59.080Z,12
2022-12-27T04:53:29.648Z,11
2022-12-27T04:56:00.455Z,15
2022-12-27T04:58:31.292Z,13
2022-12-27T05:01:01.812Z,11
2022-12-27T05:03:32.674Z,11
2022-12-27T05:06:03.415Z,11
2022-12-27T05:08:34.243Z,12
2022-12-27T05:11:04.678Z,15
2022-12-27T05:13:35.599Z,13
2022-12-27T05:16:06.309Z,12
2022-12-27T05:18:37.183Z,12
2022-12-27T05:21:07.623Z,18
2022-12-27T05:23:38.544Z,12
2022-12-27T05:26:09.265Z,9
2022-12-27T05:28:39.753Z,12
2022-12-27T05:31:10.567Z,12
2022-12-27T05:33:41.361Z,15
2022-12-27T05:36:12.145Z,16
2022-12-27T05:38:42.987Z,11
2022-12-27T05:41:13.753Z,11
2022-12-27T05:43:44.575Z,10
2022-12-27T05:46:15.090Z,10
2022-12-27T05:48:45.819Z,9
2022-12-27T05:51:16.623Z,15
2022-12-27T05:53:47.430Z,11
2022-12-27T05:56:18.216Z,6
2022-12-27T05:58:49.030Z,8
2022-12-27T06:01:19.887Z,7
2022-12-27T06:03:50.612Z,6
2022-12-27T06:06:21.428Z,10
2022-12-27T06:08:52.260Z,10
2022-12-27T06:11:22.974Z,13
2022-12-27T06:13:53.793Z,10
2022-12-27T06:16:24.382Z,11
2022-12-27T06:18:55.171Z,10
2022-12-27T06:21:25.867Z,13
2022-12-27T06:23:56.772Z,12
2022-12-27T06:26:27.441Z,8
2022-12-27T06:28:58.237Z,11
2022-12-27T06:31:29.061Z,14
2022-12-27T06:33:59.906Z,11
2022-12-27T06:36:30.421Z,11
2022-12-27T06:39:01.123Z,14
2022-12-27T06:41:32.002Z,10
2022-12-27T06:44:02.378Z,13
2022-12-27T06:46:33.151Z,12
2022-12-27T06:49:03.962Z,13
2022-12-27T06:51:34.753Z,15
2022-12-27T06:54:05.271Z,12
2022-12-27T06:56:36.056Z,14
2022-12-27T06:59:06.603Z,12
2022-12-27T07:01:37.608Z,11
2022-12-27T07:04:08.217Z,16
2022-12-27T07:06:39.000Z,10
2022-12-27T07:09:09.807Z,11
2022-12-27T07:11:40.717Z,13
2022-12-27T07:14:11.456Z,12
2022-12-27T07:16:41.611Z,15
2022-12-27T07:19:11.857Z,10
2022-12-27T07:21:42.384Z,14
2022-12-27T07:24:13.215Z,12
2022-12-27T07:26:43.998Z,14
2022-12-27T07:29:14.833Z,15
2022-12-27T07:31:45.683Z,14
2022-12-27T07:34:16.100Z,17
2022-12-27T07:36:46.907Z,17
2022-12-27T07:39:17.720Z,18
2022-12-27T07:41:48.516Z,13
2022-12-27T07:44:19.062Z,17
2022-12-27T07:46:49.876Z,16
2022-12-27T07:49:20.707Z,17
2022-12-27T07:51:51.522Z,17
2022-12-27T07:54:22.338Z,15
2022-12-27T07:56:52.971Z,15
2022-12-27T07:59:23.355Z,16
2022-12-27T08:01:54.484Z,13
2022-12-27T08:04:24.706Z,18
2022-12-27T08:06:55.232Z,20
2022-12-27T08:09:26.040Z,16
2022-12-27T08:11:56.211Z,18
2022-12-27T08:14:26.914Z,17
2022-12-27T08:16:57.602Z,15
2022-12-27T08:19:27.966Z,13
2022-12-27T08:21:58.473Z,14
2022-12-27T08:24:28.995Z,13
2022-12-27T08:26:59.770Z,12
2022-12-27T08:29:30.571Z,13
2022-12-27T08:32:01.361Z,11
2022-12-27T08:34:32.165Z,9
2022-12-27T08:37:03.025Z,12
2022-12-27T08:39:33.413Z,12
2022-12-27T08:42:04.180Z,10
2022-12-27T08:44:35.000Z,13
2022-12-27T08:47:05.771Z,13
2022-12-27T08:49:36.303Z,15
2022-12-27T08:52:07.109Z,17
2022-12-27T08:54:37.648Z,21
2022-12-27T08:57:08.428Z,16
2022-12-27T08:59:39.257Z,19
2022-12-27T09:02:09.788Z,23
2022-12-27T09:04:40.230Z,18
2022-12-27T09:07:11.029Z,18
2022-12-27T09:09:41.564Z,20
2022-12-27T09:12:12.386Z,17
2022-12-27T09:14:43.229Z,17
2022-12-27T09:17:13.609Z,18
2022-12-27T09:19:44.355Z,19
2022-12-27T09:22:15.099Z,17
2022-12-27T09:24:45.843Z,22
2022-12-27T09:27:16.578Z,19
2022-12-27T09:29:48.571Z,12
2022-12-27T09:32:17.660Z,16
2022-12-27T09:34:48.101Z,15
2022-12-27T09:37:19.062Z,14
2022-12-27T09:39:49.667Z,16
2022-12-27T09:42:53.477Z,15
2022-12-27T09:44:51.200Z,12
2022-12-27T09:47:21.953Z,17
2022-12-27T09:49:52.470Z,16
2022-12-27T09:52:22.937Z,12
2022-12-27T09:54:56.738Z,15
2022-12-27T09:57:24.106Z,15
2022-12-27T09:59:54.681Z,14
2022-12-27T10:02:25.509Z,15
2022-12-27T10:07:26.587Z,12
2022-12-27T10:09:57.364Z,13
2022-12-27T10:12:31.788Z,14
2022-12-27T10:14:58.868Z,13
2022-12-27T10:17:29.600Z,14
2022-12-27T10:20:00.030Z,13
2022-12-27T10:22:30.790Z,14
2022-12-27T10:25:01.554Z,12
2022-12-27T10:27:32.283Z,14
2022-12-27T10:30:03.042Z,9
2022-12-27T10:32:33.822Z,11
2022-12-27T10:35:04.529Z,12
2022-12-27T10:37:34.993Z,12
2022-12-27T10:40:05.804Z,12
2022-12-27T10:42:36.547Z,12
2022-12-27T10:45:06.922Z,14
2022-12-27T10:47:37.607Z,13
2022-12-27T10:50:08.355Z,11
2022-12-27T10:52:39.063Z,11
2022-12-27T10:55:09.848Z,11
2022-12-27T10:57:40.494Z,10
2022-12-27T11:00:10.881Z,11
2022-12-27T11:02:41.695Z,10
2022-12-27T11:05:12.278Z,10
2022-12-27T11:07:43.047Z,11
2022-12-27T11:10:13.719Z,10
2022-12-27T11:12:44.416Z,12
2022-12-27T11:15:15.187Z,10
2022-12-27T11:17:45.919Z,9
2022-12-27T11:20:16.656Z,10
2022-12-27T11:22:47.397Z,11
2022-12-27T11:25:18.119Z,10
2022-12-27T11:27:48.383Z,9
2022-12-27T11:30:19.111Z,7
2022-12-27T11:32:49.799Z,10
2022-12-27T11:35:20.285Z,9
2022-12-27T11:37:50.971Z,11
2022-12-27T11:40:21.696Z,8
2022-12-27T11:42:52.127Z,12
2022-12-27T11:45:22.834Z,9
2022-12-27T11:47:53.620Z,10
2022-12-27T11:50:24.264Z,12
2022-12-27T11:52:54.355Z,15
2022-12-27T11:55:25.103Z,12
2022-12-27T11:57:55.743Z,14
2022-12-27T12:00:26.320Z,9
2022-12-27T12:02:57.221Z,12
2022-12-27T12:05:27.802Z,14
2022-12-27T12:07:58.547Z,15
2022-12-27T12:10:29.313Z,13
2022-12-27T12:13:00.057Z,12
2022-12-27T12:15:30.799Z,14
2022-12-27T12:18:01.524Z,16
2022-12-27T12:20:32.390Z,14
2022-12-27T12:23:03.011Z,21
2022-12-27T12:25:33.780Z,18
2022-12-27T12:28:13.211Z,17
2022-12-27T12:30:34.433Z,19
2022-12-27T12:33:04.831Z,15
2022-12-27T12:35:35.303Z,18
2022-12-27T12:38:05.767Z,17
2022-12-27T12:40:36.195Z,22
2022-12-27T12:43:06.875Z,19
2022-12-27T12:45:37.476Z,21
2022-12-27T12:48:07.886Z,20
2022-12-27T12:50:38.672Z,19
2022-12-27T12:53:09.359Z,20
2022-12-27T12:55:39.760Z,17
2022-12-27T12:58:10.564Z,24
2022-12-27T13:00:40.919Z,28
2022-12-27T13:03:11.178Z,17
2022-12-27T13:05:41.563Z,20
2022-12-27T13:08:11.916Z,21
2022-12-27T13:10:42.297Z,19
2022-12-27T13:13:13.034Z,20
2022-12-27T13:15:43.523Z,21
2022-12-27T13:18:13.637Z,20
2022-12-27T13:20:44.447Z,24
2022-12-27T13:23:14.508Z,22
2022-12-27T13:25:45.256Z,21
2022-12-27T13:28:15.996Z,25
2022-12-27T13:30:46.987Z,29
2022-12-27T13:33:16.927Z,22
2022-12-27T13:35:47.632Z,17
2022-12-27T13:38:18.318Z,30
2022-12-27T13:40:49.084Z,20
2022-12-27T13:43:19.984Z,22
2022-12-27T13:45:50.749Z,22
2022-12-27T13:48:20.842Z,24
2022-12-27T13:50:51.532Z,27
2022-12-27T13:53:22.353Z,32
2022-12-27T13:55:52.702Z,22
2022-12-27T13:58:23.161Z,21
2022-12-27T14:00:53.834Z,23
2022-12-27T14:03:24.404Z,20
2022-12-27T14:05:54.748Z,23
2022-12-27T14:08:25.413Z,21
2022-12-27T14:11:00.732Z,20
2022-12-27T14:13:26.663Z,23
2022-12-27T14:15:57.402Z,23
2022-12-27T14:18:28.065Z,21
2022-12-27T14:20:58.437Z,29
2022-12-27T14:23:28.979Z,23
2022-12-27T14:25:59.608Z,23
2022-12-27T14:28:30.310Z,20
2022-12-27T14:31:00.851Z,19
2022-12-27T14:33:31.127Z,22
2022-12-27T14:36:01.853Z,28
2022-12-27T14:38:32.176Z,20
2022-12-27T14:41:02.881Z,19
2022-12-27T14:43:33.324Z,20
2022-12-27T14:46:03.750Z,22
2022-12-27T14:48:34.384Z,20
2022-12-27T14:51:08.090Z,22
2022-12-27T14:53:35.293Z,20
2022-12-27T14:56:05.961Z,31
2022-12-27T14:58:36.391Z,19
2022-12-27T15:01:07.101Z,21
2022-12-27T15:03:41.362Z,21
2022-12-27T15:06:08.106Z,20
2022-12-27T15:08:38.411Z,16
2022-12-27T15:11:08.839Z,22
2022-12-27T15:13:39.578Z,19
2022-12-27T15:16:15.079Z,17
2022-12-27T15:18:41.021Z,23
2022-12-27T15:21:11.482Z,18
2022-12-27T15:23:42.205Z,23
2022-12-27T15:26:12.607Z,21
2022-12-27T15:28:43.472Z,21
2022-12-27T15:31:14.266Z,19
2022-12-27T15:33:44.921Z,20
2022-12-27T15:36:15.648Z,19
2022-12-27T15:38:51.197Z,18
2022-12-27T15:41:16.682Z,19
2022-12-27T15:43:47.406Z,16
2022-12-27T15:46:18.017Z,13
2022-12-27T15:48:53.510Z,16
2022-12-27T15:51:19.381Z,19
2022-12-27T15:53:50.198Z,16
2022-12-27T15:56:20.841Z,16
2022-12-27T15:58:50.966Z,15
2022-12-27T16:01:25.651Z,14
2022-12-27T16:03:52.527Z,19
2022-12-27T16:06:23.209Z,15
2022-12-27T16:08:53.987Z,15
2022-12-27T16:11:24.686Z,13
2022-12-27T16:13:55.170Z,14
2022-12-27T16:16:25.889Z,12
2022-12-27T16:18:56.397Z,14
2022-12-27T16:21:27.170Z,14
2022-12-27T16:23:57.968Z,15
2022-12-27T16:26:28.671Z,13
2022-12-27T16:28:59.423Z,19
2022-12-27T16:31:30.215Z,13
2022-12-27T16:34:00.602Z,14
2022-12-27T16:36:31.329Z,12
2022-12-27T16:39:01.820Z,13
2022-12-27T16:41:32.123Z,15
2022-12-27T16:44:02.448Z,18
2022-12-27T16:46:33.231Z,14
2022-12-27T16:49:03.955Z,15
2022-12-27T16:51:34.711Z,13
2022-12-27T16:54:04.802Z,14
2022-12-27T16:56:35.593Z,14
2022-12-27T16:59:06.250Z,15
2022-12-27T17:01:37.135Z,12
2022-12-27T17:04:07.458Z,11
2022-12-27T17:06:38.330Z,10
2022-12-27T17:09:08.985Z,14
2022-12-27T17:11:39.721Z,13
2022-12-27T17:14:10.730Z,12
2022-12-27T17:16:41.226Z,11
2022-12-27T17:19:12.402Z,15
2022-12-27T17:21:42.665Z,11
2022-12-27T17:24:13.421Z,9
2022-12-27T17:26:44.188Z,13
2022-12-27T17:29:14.868Z,11
2022-12-27T17:31:45.794Z,15
2022-12-27T17:34:16.361Z,11
2022-12-27T17:36:47.223Z,12
2022-12-27T17:39:17.835Z,11
2022-12-27T17:41:48.581Z,14
2022-12-27T17:44:19.294Z,10
2022-12-27T17:46:50.030Z,10
2022-12-27T17:49:20.769Z,10
2022-12-27T17:51:51.608Z,9
2022-12-27T17:54:22.250Z,12
2022-12-27T17:56:52.364Z,11
2022-12-27T17:59:22.896Z,13
2022-12-27T18:01:53.826Z,11
2022-12-27T18:04:24.255Z,11
2022-12-27T18:06:54.989Z,10
2022-12-27T18:09:25.730Z,10
2022-12-27T18:11:56.588Z,10
2022-12-27T18:14:27.296Z,8
2022-12-27T18:16:57.956Z,10
2022-12-27T18:19:28.693Z,11
2022-12-27T18:21:59.485Z,8
2022-12-27T18:24:30.256Z,7
2022-12-27T18:27:00.929Z,10
2022-12-27T18:29:31.653Z,10
2022-12-27T18:32:02.458Z,13
2022-12-27T18:34:33.215Z,12
2022-12-27T18:37:03.861Z,10
2022-12-27T18:39:34.584Z,10
2022-12-27T18:42:05.292Z,10
2022-12-27T18:44:35.994Z,9
2022-12-27T18:47:06.723Z,11
2022-12-27T18:49:37.437Z,9
2022-12-27T18:52:08.182Z,8
2022-12-27T18:54:38.592Z,12
2022-12-27T18:57:08.947Z,9
2022-12-27T18:59:39.613Z,9
2022-12-27T19:02:10.234Z,12
2022-12-27T19:04:40.867Z,9
2022-12-27T19:07:11.481Z,10
2022-12-27T19:09:41.914Z,9
2022-12-27T19:12:12.246Z,9
2022-12-27T19:14:42.948Z,8
2022-12-27T19:17:13.663Z,9
2022-12-27T19:19:44.058Z,10
2022-12-27T19:22:14.488Z,13
2022-12-27T19:24:45.222Z,8
2022-12-27T19:27:15.914Z,10
2022-12-27T19:29:46.610Z,10
2022-12-27T19:32:16.956Z,8
2022-12-27T19:34:47.643Z,11
2022-12-27T19:37:18.077Z,8
2022-12-27T19:39:48.807Z,7
2022-12-27T19:42:19.475Z,7
2022-12-27T19:44:50.154Z,6
2022-12-27T19:47:20.828Z,7
2022-12-27T19:49:51.491Z,8
2022-12-27T19:52:22.201Z,7
2022-12-27T19:54:52.878Z,8
2022-12-27T19:57:23.569Z,8
2022-12-27T19:59:53.963Z,8
2022-12-27T20:02:24.901Z,9
2022-12-27T20:04:55.352Z,6
2022-12-27T20:07:26.057Z,10
2022-12-27T20:09:56.804Z,9
2022-12-27T20:12:27.450Z,7
2022-12-27T20:14:58.163Z,10
2022-12-27T20:17:28.852Z,11
2022-12-27T20:19:59.547Z,6
2022-12-27T20:22:30.263Z,7
2022-12-27T20:25:00.990Z,7
2022-12-27T20:27:31.685Z,8
2022-12-27T20:30:02.404Z,12
2022-12-27T20:32:33.122Z,10
2022-12-27T20:35:03.930Z,8
2022-12-27T20:37:34.614Z,7
2022-12-27T20:40:05.244Z,10
2022-12-27T20:42:35.962Z,7
2022-12-27T20:45:06.659Z,10
2022-12-27T20:47:37.371Z,11
2022-12-27T20:50:08.116Z,10
2022-12-27T20:52:38.814Z,9
2022-12-27T20:55:09.176Z,6
2022-12-27T20:57:39.890Z,9
2022-12-27T21:00:10.308Z,8
2022-12-27T21:02:41.171Z,10
2022-12-27T21:05:11.750Z,6
2022-12-27T21:07:42.481Z,11
2022-12-27T21:10:13.199Z,10
2022-12-27T21:12:43.930Z,8
2022-12-27T21:15:14.643Z,8
2022-12-27T21:17:45.397Z,6
2022-12-27T21:20:16.117Z,7
2022-12-27T21:22:46.836Z,8
2022-12-27T21:25:17.292Z,7
2022-12-27T21:27:48.016Z,7
2022-12-27T21:30:18.833Z,8
2022-12-27T21:32:49.557Z,8
2022-12-27T21:35:20.211Z,8
2022-12-27T21:37:50.949Z,7
2022-12-27T21:40:21.690Z,8
2022-12-27T21:42:52.423Z,8
2022-12-27T21:45:23.151Z,7
2022-12-27T21:47:53.896Z,8
2022-12-27T21:50:24.619Z,8
2022-12-27T21:52:55.437Z,8
2022-12-27T21:55:26.116Z,9
2022-12-27T21:57:56.857Z,7
2022-12-27T22:00:27.597Z,8
2022-12-27T22:02:58.645Z,8
2022-12-27T22:05:29.065Z,8
2022-12-27T22:07:59.848Z,10
2022-12-27T22:10:30.575Z,8
2022-12-27T22:13:01.375Z,8
2022-12-27T22:15:32.138Z,8
2022-12-27T22:18:02.888Z,7
2022-12-27T22:20:33.581Z,7
2022-12-27T22:23:04.336Z,6
2022-12-27T22:25:35.164Z,8
2022-12-27T22:28:05.833Z,7
2022-12-27T22:30:36.567Z,5
2022-12-27T22:33:07.423Z,7
2022-12-27T22:35:38.064Z,8
2022-12-27T22:38:08.884Z,5
2022-12-27T22:40:46.483Z,9
2022-12-27T22:43:10.351Z,7
2022-12-27T22:45:41.029Z,6
2022-12-27T22:48:11.799Z,9
2022-12-27T22:50:42.658Z,6
2022-12-27T22:53:13.303Z,5
2022-12-27T22:55:43.686Z,9
2022-12-27T22:58:14.135Z,8
2022-12-27T23:00:44.865Z,8
2022-12-27T23:03:15.612Z,6
2022-12-27T23:05:46.331Z,6
2022-12-27T23:08:17.086Z,6
2022-12-27T23:10:47.901Z,7
2022-12-27T23:13:18.553Z,7
2022-12-27T23:15:49.423Z,7
2022-12-27T23:18:20.276Z,9
2022-12-27T23:21:20.275Z,7
2022-12-27T23:23:21.706Z,9
2022-12-27T23:25:52.322Z,7
2022-12-27T23:28:22.959Z,7
2022-12-27T23:30:53.681Z,8
2022-12-27T23:33:24.406Z,5
2022-12-27T23:35:55.133Z,6
2022-12-27T23:38:25.886Z,4
2022-12-27T23:40:56.630Z,7
2022-12-27T23:45:58.061Z,6
2022-12-27T23:48:28.919Z,5
2022-12-27T23:50:59.516Z,4
2022-12-27T23:53:30.256Z,5
2022-12-27T23:56:01.011Z,5
2022-12-27T23:58:31.776Z,5
